sensor_id;sensor_type;location;lat;lon;timestamp;pressure;altitude;pressure_sealevel;temperature;humidity
23363;BME280;11853;48.080;11.960;2023-04-08T00:01:49;94818.69;;;7.13;93.94
23363;BME280;11853;48.080;11.960;2023-04-08T00:04:15;94823.00;;;7.14;94.12
23363;BME280;11853;48.080;11.960;2023-04-08T00:06:41;94814.38;;;7.12;93.88
23363;BME280;11853;48.080;11.960;2023-04-08T00:09:06;94833.09;;;7.09;93.88
23363;BME280;11853;48.080;11.960;2023-04-08T00:11:32;94835.34;;;7.13;92.69
23363;BME280;11853;48.080;11.960;2023-04-08T00:13:59;94835.28;;;7.04;93.68
23363;BME280;11853;48.080;11.960;2023-04-08T00:16:25;94836.78;;;6.96;94.30
23363;BME280;11853;48.080;11.960;2023-04-08T00:18:50;94832.22;;;6.98;95.06
23363;BME280;11853;48.080;11.960;2023-04-08T00:21:16;94835.28;;;7.04;96.29
23363;BME280;11853;48.080;11.960;2023-04-08T00:23:42;94841.34;;;7.15;96.65
23363;BME280;11853;48.080;11.960;2023-04-08T00:26:08;94831.72;;;7.14;96.86
23363;BME280;11853;48.080;11.960;2023-04-08T00:28:34;94832.44;;;7.16;97.14
23363;BME280;11853;48.080;11.960;2023-04-08T00:30:59;94828.16;;;7.15;97.38
23363;BME280;11853;48.080;11.960;2023-04-08T00:33:25;94828.81;;;7.17;98.54
23363;BME280;11853;48.080;11.960;2023-04-08T00:35:51;94836.47;;;7.20;98.47
23363;BME280;11853;48.080;11.960;2023-04-08T00:38:17;94825.75;;;7.12;98.27
23363;BME280;11853;48.080;11.960;2023-04-08T00:40:42;94837.84;;;7.15;98.75
23363;BME280;11853;48.080;11.960;2023-04-08T00:43:08;94834.38;;;7.14;99.67
23363;BME280;11853;48.080;11.960;2023-04-08T00:45:34;94831.06;;;7.22;100.00
23363;BME280;11853;48.080;11.960;2023-04-08T00:48:01;94835.38;;;7.23;100.00
23363;BME280;11853;48.080;11.960;2023-04-08T00:50:27;94838.56;;;7.27;100.00
23363;BME280;11853;48.080;11.960;2023-04-08T00:52:52;94834.84;;;7.29;100.00
23363;BME280;11853;48.080;11.960;2023-04-08T00:55:18;94832.34;;;7.28;100.00
23363;BME280;11853;48.080;11.960;2023-04-08T00:57:44;94840.28;;;7.28;100.00
23363;BME280;11853;48.080;11.960;2023-04-08T01:00:11;94844.38;;;7.20;100.00
23363;BME280;11853;48.080;11.960;2023-04-08T01:03:04;94834.53;;;7.22;100.00
23363;BME280;11853;48.080;11.960;2023-04-08T01:05:41;94837.06;;;7.24;100.00
23363;BME280;11853;48.080;11.960;2023-04-08T01:08:11;94824.53;;;7.16;100.00
23363;BME280;11853;48.080;11.960;2023-04-08T01:10:38;94831.63;;;7.16;100.00
23363;BME280;11853;48.080;11.960;2023-04-08T01:13:11;94834.53;;;7.13;100.00
23363;BME280;11853;48.080;11.960;2023-04-08T01:15:39;94827.56;;;7.12;100.00
23363;BME280;11853;48.080;11.960;2023-04-08T01:18:08;94832.44;;;7.16;100.00
23363;BME280;11853;48.080;11.960;2023-04-08T01:20:39;94832.56;;;7.15;100.00
23363;BME280;11853;48.080;11.960;2023-04-08T01:23:19;94835.66;;;7.20;100.00
23363;BME280;11853;48.080;11.960;2023-04-08T01:25:49;94832.56;;;7.15;100.00
23363;BME280;11853;48.080;11.960;2023-04-08T01:28:17;94829.25;;;7.13;100.00
23363;BME280;11853;48.080;11.960;2023-04-08T01:30:45;94828.66;;;7.09;100.00
23363;BME280;11853;48.080;11.960;2023-04-08T01:33:13;94836.72;;;7.08;100.00
23363;BME280;11853;48.080;11.960;2023-04-08T01:36:04;94836.97;;;7.05;100.00
23363;BME280;11853;48.080;11.960;2023-04-08T01:38:30;94826.88;;;7.10;100.00
23363;BME280;11853;48.080;11.960;2023-04-08T01:40:58;94831.16;;;7.11;100.00
23363;BME280;11853;48.080;11.960;2023-04-08T01:43:25;94831.44;;;7.08;100.00
23363;BME280;11853;48.080;11.960;2023-04-08T01:45:52;94825.00;;;7.00;100.00
23363;BME280;11853;48.080;11.960;2023-04-08T01:48:23;94840.56;;;7.04;100.00
23363;BME280;11853;48.080;11.960;2023-04-08T01:50:50;94833.50;;;7.04;100.00
23363;BME280;11853;48.080;11.960;2023-04-08T01:53:16;94835.28;;;7.04;100.00
23363;BME280;11853;48.080;11.960;2023-04-08T01:55:42;94830.28;;;7.00;100.00
23363;BME280;11853;48.080;11.960;2023-04-08T01:58:13;94830.28;;;7.00;100.00
23363;BME280;11853;48.080;11.960;2023-04-08T02:00:42;94836.41;;;7.01;100.00
23363;BME280;11853;48.080;11.960;2023-04-08T02:03:11;94829.06;;;7.05;100.00
23363;BME280;11853;48.080;11.960;2023-04-08T02:05:36;94827.25;;;7.05;100.00
23363;BME280;11853;48.080;11.960;2023-04-08T02:08:03;94827.38;;;7.04;100.00
23363;BME280;11853;48.080;11.960;2023-04-08T02:10:28;94833.63;;;7.03;100.00
23363;BME280;11853;48.080;11.960;2023-04-08T02:12:55;94833.31;;;6.96;100.00
23363;BME280;11853;48.080;11.960;2023-04-08T02:15:20;94829.06;;;7.05;100.00
23363;BME280;11853;48.080;11.960;2023-04-08T02:17:49;94830.72;;;7.06;100.00
23363;BME280;11853;48.080;11.960;2023-04-08T02:20:20;94836.53;;;6.99;100.00
23363;BME280;11853;48.080;11.960;2023-04-08T02:25:33;94837.78;;;6.95;100.00
23363;BME280;11853;48.080;11.960;2023-04-08T02:28:02;94834.41;;;6.93;100.00
23363;BME280;11853;48.080;11.960;2023-04-08T02:30:30;94835.13;;;6.95;100.00
23363;BME280;11853;48.080;11.960;2023-04-08T02:32:57;94823.34;;;6.99;100.00
23363;BME280;11853;48.080;11.960;2023-04-08T02:35:23;94825.78;;;6.91;100.00
23363;BME280;11853;48.080;11.960;2023-04-08T02:37:50;94835.78;;;6.88;100.00
23363;BME280;11853;48.080;11.960;2023-04-08T02:40:29;94836.06;;;6.94;100.00
23363;BME280;11853;48.080;11.960;2023-04-08T02:42:55;94838.59;;;6.96;100.00
23363;BME280;11853;48.080;11.960;2023-04-08T02:45:21;94823.03;;;6.93;100.00
23363;BME280;11853;48.080;11.960;2023-04-08T02:47:46;94836.41;;;6.80;100.00
23363;BME280;11853;48.080;11.960;2023-04-08T02:50:12;94834.50;;;6.82;100.00
23363;BME280;11853;48.080;11.960;2023-04-08T02:52:37;94832.56;;;6.84;100.00
23363;BME280;11853;48.080;11.960;2023-04-08T02:55:03;94829.53;;;6.89;100.00
23363;BME280;11853;48.080;11.960;2023-04-08T02:57:31;94834.69;;;6.90;100.00
23363;BME280;11853;48.080;11.960;2023-04-08T02:59:57;94840.63;;;6.92;100.00
23363;BME280;11853;48.080;11.960;2023-04-08T03:02:22;94840.81;;;7.00;100.00
23363;BME280;11853;48.080;11.960;2023-04-08T03:04:48;94836.78;;;6.96;100.00
23363;BME280;11853;48.080;11.960;2023-04-08T03:07:13;94836.06;;;6.94;100.00
23363;BME280;11853;48.080;11.960;2023-04-08T03:09:39;94842.91;;;6.97;100.00
23363;BME280;11853;48.080;11.960;2023-04-08T03:12:04;94849.41;;;6.93;100.00
23363;BME280;11853;48.080;11.960;2023-04-08T03:14:30;94847.41;;;6.85;100.00
23363;BME280;11853;48.080;11.960;2023-04-08T03:16:55;94853.41;;;6.87;100.00
23363;BME280;11853;48.080;11.960;2023-04-08T03:19:21;94848.13;;;6.87;100.00
23363;BME280;11853;48.080;11.960;2023-04-08T03:21:47;94849.69;;;6.90;100.00
23363;BME280;11853;48.080;11.960;2023-04-08T03:24:12;94853.66;;;6.84;100.00
23363;BME280;11853;48.080;11.960;2023-04-08T03:26:38;94857.97;;;6.85;100.00
23363;BME280;11853;48.080;11.960;2023-04-08T03:29:03;94858.22;;;6.82;100.00
23363;BME280;11853;48.080;11.960;2023-04-08T03:31:29;94860.16;;;6.80;100.00
23363;BME280;11853;48.080;11.960;2023-04-08T03:33:54;94856.47;;;6.92;100.00
23363;BME280;11853;48.080;11.960;2023-04-08T03:36:20;94854.34;;;6.86;100.00
23363;BME280;11853;48.080;11.960;2023-04-08T03:38:46;94850.16;;;6.84;100.00
23363;BME280;11853;48.080;11.960;2023-04-08T03:41:11;94859.69;;;6.75;100.00
23363;BME280;11853;48.080;11.960;2023-04-08T03:43:37;94856.13;;;6.76;100.00
23363;BME280;11853;48.080;11.960;2023-04-08T03:46:02;94864.03;;;6.76;100.00
23363;BME280;11853;48.080;11.960;2023-04-08T03:48:28;94859.56;;;6.76;100.00
23363;BME280;11853;48.080;11.960;2023-04-08T03:50:54;94859.00;;;6.73;100.00
23363;BME280;11853;48.080;11.960;2023-04-08T03:53:19;94861.91;;;6.70;100.00
23363;BME280;11853;48.080;11.960;2023-04-08T03:55:45;94862.72;;;6.70;100.00
23363;BME280;11853;48.080;11.960;2023-04-08T03:58:12;94866.47;;;6.68;100.00
23363;BME280;11853;48.080;11.960;2023-04-08T04:00:38;94868.38;;;6.66;100.00
23363;BME280;11853;48.080;11.960;2023-04-08T04:03:04;94866.00;;;6.63;100.00
23363;BME280;11853;48.080;11.960;2023-04-08T04:05:29;94864.34;;;6.62;100.00
23363;BME280;11853;48.080;11.960;2023-04-08T04:07:55;94872.25;;;6.62;100.00
23363;BME280;11853;48.080;11.960;2023-04-08T04:10:22;94874.16;;;6.60;100.00
23363;BME280;11853;48.080;11.960;2023-04-08T04:12:49;94880.53;;;6.57;100.00
23363;BME280;11853;48.080;11.960;2023-04-08T04:15:14;94875.13;;;6.59;100.00
23363;BME280;11853;48.080;11.960;2023-04-08T04:17:40;94876.09;;;6.58;100.00
23363;BME280;11853;48.080;11.960;2023-04-08T04:20:06;94881.88;;;6.51;100.00
23363;BME280;11853;48.080;11.960;2023-04-08T04:22:31;94874.59;;;6.44;100.00
23363;BME280;11853;48.080;11.960;2023-04-08T04:24:57;94876.59;;;6.51;100.00
23363;BME280;11853;48.080;11.960;2023-04-08T04:27:22;94884.25;;;6.54;100.00
23363;BME280;11853;48.080;11.960;2023-04-08T04:29:48;94883.78;;;6.49;100.00
23363;BME280;11853;48.080;11.960;2023-04-08T04:32:13;94890.75;;;6.50;100.00
23363;BME280;11853;48.080;11.960;2023-04-08T04:34:39;94883.56;;;6.52;100.00
23363;BME280;11853;48.080;11.960;2023-04-08T04:37:04;94889.06;;;6.49;100.00
23363;BME280;11853;48.080;11.960;2023-04-08T04:39:30;94883.78;;;6.49;100.00
23363;BME280;11853;48.080;11.960;2023-04-08T04:41:56;94890.13;;;6.58;100.00
23363;BME280;11853;48.080;11.960;2023-04-08T04:44:22;94893.38;;;6.50;100.00
23363;BME280;11853;48.080;11.960;2023-04-08T04:46:47;94883.88;;;6.59;100.00
23363;BME280;11853;48.080;11.960;2023-04-08T04:49:12;94896.91;;;6.61;100.00
23363;BME280;11853;48.080;11.960;2023-04-08T04:51:38;94899.44;;;6.62;100.00
23363;BME280;11853;48.080;11.960;2023-04-08T04:54:04;94895.50;;;6.57;100.00
23363;BME280;11853;48.080;11.960;2023-04-08T04:56:30;94899.13;;;6.56;100.00
23363;BME280;11853;48.080;11.960;2023-04-08T04:58:55;94889.91;;;6.50;100.00
23363;BME280;11853;48.080;11.960;2023-04-08T05:01:21;94902.69;;;6.54;100.00
23363;BME280;11853;48.080;11.960;2023-04-08T05:03:46;94906.63;;;6.60;100.00
23363;BME280;11853;48.080;11.960;2023-04-08T05:06:12;94900.78;;;6.57;100.00
23363;BME280;11853;48.080;11.960;2023-04-08T05:08:37;94908.56;;;6.58;100.00
23363;BME280;11853;48.080;11.960;2023-04-08T05:11:03;94908.31;;;6.61;100.00
23363;BME280;11853;48.080;11.960;2023-04-08T05:13:28;94903.88;;;6.62;100.00
23363;BME280;11853;48.080;11.960;2023-04-08T05:15:54;94909.97;;;6.62;100.00
23363;BME280;11853;48.080;11.960;2023-04-08T05:18:20;94911.78;;;6.62;100.00
23363;BME280;11853;48.080;11.960;2023-04-08T05:20:45;94907.66;;;6.69;100.00
23363;BME280;11853;48.080;11.960;2023-04-08T05:23:11;94905.38;;;6.75;100.00
23363;BME280;11853;48.080;11.960;2023-04-08T05:25:36;94905.47;;;6.74;100.00
23363;BME280;11853;48.080;11.960;2023-04-08T05:28:03;94915.78;;;6.77;100.00
23363;BME280;11853;48.080;11.960;2023-04-08T05:30:29;94912.16;;;6.78;100.00
23363;BME280;11853;48.080;11.960;2023-04-08T05:32:55;94907.88;;;6.77;100.00
23363;BME280;11853;48.080;11.960;2023-04-08T05:35:20;94908.56;;;6.79;100.00
23363;BME280;11853;48.080;11.960;2023-04-08T05:37:46;94912.31;;;6.76;100.00
23363;BME280;11853;48.080;11.960;2023-04-08T05:40:11;94910.66;;;6.75;100.00
23363;BME280;11853;48.080;11.960;2023-04-08T05:42:37;94918.28;;;6.79;100.00
23363;BME280;11853;48.080;11.960;2023-04-08T05:45:03;94913.44;;;6.84;100.00
23363;BME280;11853;48.080;11.960;2023-04-08T05:47:28;94918.34;;;6.88;100.00
23363;BME280;11853;48.080;11.960;2023-04-08T05:49:54;94909.16;;;6.83;100.00
23363;BME280;11853;48.080;11.960;2023-04-08T05:52:20;94920.72;;;6.91;100.00
23363;BME280;11853;48.080;11.960;2023-04-08T05:54:45;94921.00;;;6.88;100.00
23363;BME280;11853;48.080;11.960;2023-04-08T05:57:11;94926.25;;;6.88;100.00
23363;BME280;11853;48.080;11.960;2023-04-08T05:59:37;94929.03;;;6.87;100.00
23363;BME280;11853;48.080;11.960;2023-04-08T06:02:02;94933.81;;;6.93;100.00
23363;BME280;11853;48.080;11.960;2023-04-08T06:04:28;94935.56;;;6.92;100.00
23363;BME280;11853;48.080;11.960;2023-04-08T06:06:54;94938.09;;;6.94;100.00
23363;BME280;11853;48.080;11.960;2023-04-08T06:09:24;94930.50;;;7.00;100.00
23363;BME280;11853;48.080;11.960;2023-04-08T06:11:50;94937.19;;;7.05;100.00
23363;BME280;11853;48.080;11.960;2023-04-08T06:14:15;94949.41;;;7.06;100.00
23363;BME280;11853;48.080;11.960;2023-04-08T06:16:41;94938.88;;;7.06;100.00
23363;BME280;11853;48.080;11.960;2023-04-08T06:19:06;94937.88;;;7.07;100.00
23363;BME280;11853;48.080;11.960;2023-04-08T06:21:32;94939.69;;;7.06;100.00
23363;BME280;11853;48.080;11.960;2023-04-08T06:23:57;94943.16;;;7.07;100.00
23363;BME280;11853;48.080;11.960;2023-04-08T06:26:23;94942.78;;;7.11;100.00
23363;BME280;11853;48.080;11.960;2023-04-08T06:28:48;94940.72;;;7.15;100.00
23363;BME280;11853;48.080;11.960;2023-04-08T06:31:14;94945.88;;;7.16;100.00
23363;BME280;11853;48.080;11.960;2023-04-08T06:33:39;94949.81;;;7.22;100.00
23363;BME280;11853;48.080;11.960;2023-04-08T06:36:06;94948.13;;;7.21;100.00
23363;BME280;11853;48.080;11.960;2023-04-08T06:38:32;94953.84;;;7.26;100.00
23363;BME280;11853;48.080;11.960;2023-04-08T06:41:07;94961.50;;;7.29;100.00
23363;BME280;11853;48.080;11.960;2023-04-08T06:43:34;94963.88;;;7.32;100.00
23363;BME280;11853;48.080;11.960;2023-04-08T06:46:00;94965.41;;;7.35;100.00
23363;BME280;11853;48.080;11.960;2023-04-08T06:48:26;94967.94;;;7.36;100.00
23363;BME280;11853;48.080;11.960;2023-04-08T06:50:55;94962.66;;;7.36;100.00
23363;BME280;11853;48.080;11.960;2023-04-08T06:53:22;94974.34;;;7.43;100.00
23363;BME280;11853;48.080;11.960;2023-04-08T06:55:48;94967.16;;;7.45;100.00
23363;BME280;11853;48.080;11.960;2023-04-08T06:58:14;94966.31;;;7.45;100.00
23363;BME280;11853;48.080;11.960;2023-04-08T07:00:41;94967.97;;;7.46;100.00
23363;BME280;11853;48.080;11.960;2023-04-08T07:03:06;94964.13;;;7.50;100.00
23363;BME280;11853;48.080;11.960;2023-04-08T07:05:34;94974.28;;;7.55;100.00
23363;BME280;11853;48.080;11.960;2023-04-08T07:08:01;94969.44;;;7.60;100.00
23363;BME280;11853;48.080;11.960;2023-04-08T07:10:26;94974.63;;;7.61;100.00
23363;BME280;11853;48.080;11.960;2023-04-08T07:12:52;94975.88;;;7.67;100.00
23363;BME280;11853;48.080;11.960;2023-04-08T07:15:18;94973.38;;;7.65;100.00
23363;BME280;11853;48.080;11.960;2023-04-08T07:17:44;94977.81;;;7.65;100.00
23363;BME280;11853;48.080;11.960;2023-04-08T07:20:10;94978.53;;;7.67;100.00
23363;BME280;11853;48.080;11.960;2023-04-08T07:22:36;94979.38;;;7.67;100.00
23363;BME280;11853;48.080;11.960;2023-04-08T07:25:02;94983.38;;;7.62;100.00
23363;BME280;11853;48.080;11.960;2023-04-08T07:27:27;94984.91;;;7.64;100.00
23363;BME280;11853;48.080;11.960;2023-04-08T07:29:53;94977.56;;;7.68;100.00
23363;BME280;11853;48.080;11.960;2023-04-08T07:32:19;94983.22;;;7.63;100.00
23363;BME280;11853;48.080;11.960;2023-04-08T07:34:45;94980.84;;;7.60;100.00
23363;BME280;11853;48.080;11.960;2023-04-08T07:37:10;94983.38;;;7.62;96.43
23363;BME280;11853;48.080;11.960;2023-04-08T07:39:36;94982.66;;;7.60;93.59
23363;BME280;11853;48.080;11.960;2023-04-08T07:42:01;94986.28;;;7.59;92.07
23363;BME280;11853;48.080;11.960;2023-04-08T07:44:27;94987.66;;;7.63;93.01
23363;BME280;11853;48.080;11.960;2023-04-08T07:46:52;94995.00;;;7.59;94.10
23363;BME280;11853;48.080;11.960;2023-04-08T07:49:18;94987.41;;;7.66;96.00
23363;BME280;11853;48.080;11.960;2023-04-08T07:51:43;94994.03;;;7.60;97.91
23363;BME280;11853;48.080;11.960;2023-04-08T07:54:09;94992.44;;;7.48;98.93
23363;BME280;11853;48.080;11.960;2023-04-08T07:56:36;95003.53;;;7.42;98.00
23363;BME280;11853;48.080;11.960;2023-04-08T07:59:05;95002.97;;;7.38;98.79
23363;BME280;11853;48.080;11.960;2023-04-08T08:01:31;94999.03;;;7.33;98.18
23363;BME280;11853;48.080;11.960;2023-04-08T08:03:59;95004.38;;;7.21;97.31
23363;BME280;11853;48.080;11.960;2023-04-08T08:06:25;95008.09;;;7.19;97.33
23363;BME280;11853;48.080;11.960;2023-04-08T08:08:52;95007.00;;;7.21;98.84
23363;BME280;11853;48.080;11.960;2023-04-08T08:11:17;95006.03;;;7.22;100.00
23363;BME280;11853;48.080;11.960;2023-04-08T08:13:43;95002.84;;;7.19;99.68
23363;BME280;11853;48.080;11.960;2023-04-08T08:16:09;95010.16;;;7.15;99.38
23363;BME280;11853;48.080;11.960;2023-04-08T08:18:36;95005.47;;;7.19;99.54
23363;BME280;11853;48.080;11.960;2023-04-08T08:21:02;95006.56;;;7.16;99.58
23363;BME280;11853;48.080;11.960;2023-04-08T08:23:28;95010.50;;;7.22;99.64
23363;BME280;11853;48.080;11.960;2023-04-08T08:26:00;95007.13;;;7.20;100.00
23363;BME280;11853;48.080;11.960;2023-04-08T08:28:26;94999.72;;;7.14;100.00
23363;BME280;11853;48.080;11.960;2023-04-08T08:30:52;95006.09;;;7.11;100.00
23363;BME280;11853;48.080;11.960;2023-04-08T08:33:18;95019.44;;;7.10;100.00
23363;BME280;11853;48.080;11.960;2023-04-08T08:35:43;95006.94;;;7.12;100.00
23363;BME280;11853;48.080;11.960;2023-04-08T08:38:09;95011.53;;;7.10;100.00
23363;BME280;11853;48.080;11.960;2023-04-08T08:40:37;95012.34;;;7.10;100.00
23363;BME280;11853;48.080;11.960;2023-04-08T08:43:02;95012.19;;;7.12;100.00
23363;BME280;11853;48.080;11.960;2023-04-08T08:45:28;95017.47;;;7.12;100.00
23363;BME280;11853;48.080;11.960;2023-04-08T08:47:55;95011.13;;;7.14;100.00
23363;BME280;11853;48.080;11.960;2023-04-08T08:50:21;95016.78;;;7.10;100.00
23363;BME280;11853;48.080;11.960;2023-04-08T08:52:50;95024.44;;;7.13;100.00
23363;BME280;11853;48.080;11.960;2023-04-08T08:55:20;95013.56;;;7.06;100.00
23363;BME280;11853;48.080;11.960;2023-04-08T08:57:48;95014.06;;;7.00;100.00
23363;BME280;11853;48.080;11.960;2023-04-08T09:00:15;95025.69;;;6.97;100.00
23363;BME280;11853;48.080;11.960;2023-04-08T09:02:41;95022.69;;;7.02;100.00
23363;BME280;11853;48.080;11.960;2023-04-08T09:05:06;95028.44;;;7.07;100.00
23363;BME280;11853;48.080;11.960;2023-04-08T09:07:37;95030.94;;;7.09;100.00
23363;BME280;11853;48.080;11.960;2023-04-08T09:10:06;95042.72;;;7.05;100.00
23363;BME280;11853;48.080;11.960;2023-04-08T09:12:32;95030.72;;;7.00;100.00
23363;BME280;11853;48.080;11.960;2023-04-08T09:15:08;95039.09;;;7.06;100.00
23363;BME280;11853;48.080;11.960;2023-04-08T09:17:36;95037.63;;;7.13;100.00
23363;BME280;11853;48.080;11.960;2023-04-08T09:20:08;95042.19;;;7.11;100.00
23363;BME280;11853;48.080;11.960;2023-04-08T09:25:31;95035.19;;;7.21;100.00
23363;BME280;11853;48.080;11.960;2023-04-08T09:27:57;95053.66;;;7.21;100.00
23363;BME280;11853;48.080;11.960;2023-04-08T09:30:24;95041.16;;;7.23;100.00
23363;BME280;11853;48.080;11.960;2023-04-08T09:32:55;95037.59;;;7.24;100.00
23363;BME280;11853;48.080;11.960;2023-04-08T09:35:22;95043.56;;;7.26;100.00
23363;BME280;11853;48.080;11.960;2023-04-08T09:37:48;95040.91;;;7.26;100.00
23363;BME280;11853;48.080;11.960;2023-04-08T09:40:15;95024.41;;;7.24;100.00
23363;BME280;11853;48.080;11.960;2023-04-08T09:42:44;95029.22;;;7.19;100.00
23363;BME280;11853;48.080;11.960;2023-04-08T09:45:14;95038.28;;;7.26;100.00
23363;BME280;11853;48.080;11.960;2023-04-08T09:48:17;95033.34;;;7.33;100.00
23363;BME280;11853;48.080;11.960;2023-04-08T09:50:49;95031.53;;;7.33;100.00
23363;BME280;11853;48.080;11.960;2023-04-08T09:53:33;95037.66;;;7.34;100.00
23363;BME280;11853;48.080;11.960;2023-04-08T09:56:01;95038.47;;;7.34;100.00
23363;BME280;11853;48.080;11.960;2023-04-08T09:58:44;95031.78;;;7.30;100.00
23363;BME280;11853;48.080;11.960;2023-04-08T10:01:13;95035.25;;;7.31;100.00
23363;BME280;11853;48.080;11.960;2023-04-08T10:03:47;95033.34;;;7.33;100.00
23363;BME280;11853;48.080;11.960;2023-04-08T10:06:14;95037.97;;;7.40;100.00
23363;BME280;11853;48.080;11.960;2023-04-08T10:08:41;95046.78;;;7.51;100.00
23363;BME280;11853;48.080;11.960;2023-04-08T10:11:07;95041.97;;;7.56;100.00
23363;BME280;11853;48.080;11.960;2023-04-08T10:13:33;95040.34;;;7.64;100.00
23363;BME280;11853;48.080;11.960;2023-04-08T10:18:42;95036.78;;;7.75;97.69
23363;BME280;11853;48.080;11.960;2023-04-08T10:21:38;95029.25;;;7.71;98.24
23363;BME280;11853;48.080;11.960;2023-04-08T10:24:09;95032.22;;;7.77;99.58
23363;BME280;11853;48.080;11.960;2023-04-08T10:26:43;95026.44;;;7.62;96.16
23363;BME280;11853;48.080;11.960;2023-04-08T10:31:44;95023.06;;;7.60;96.57
23363;BME280;11853;48.080;11.960;2023-04-08T10:34:23;95031.75;;;7.72;97.11
23363;BME280;11853;48.080;11.960;2023-04-08T10:36:51;95019.16;;;7.76;96.32
23363;BME280;11853;48.080;11.960;2023-04-08T10:39:17;95024.38;;;7.66;94.95
23363;BME280;11853;48.080;11.960;2023-04-08T10:41:47;95025.25;;;7.55;95.40
23363;BME280;11853;48.080;11.960;2023-04-08T10:44:24;95024.97;;;7.49;94.59
23363;BME280;11853;48.080;11.960;2023-04-08T10:46:53;95035.78;;;7.45;95.44
23363;BME280;11853;48.080;11.960;2023-04-08T10:49:19;95025.78;;;7.49;94.84
23363;BME280;11853;48.080;11.960;2023-04-08T10:51:47;95029.09;;;7.41;94.60
23363;BME280;11853;48.080;11.960;2023-04-08T10:54:15;95029.34;;;7.38;95.22
23363;BME280;11853;48.080;11.960;2023-04-08T10:56:54;95034.63;;;7.38;96.37
23363;BME280;11853;48.080;11.960;2023-04-08T10:59:28;95040.22;;;7.45;96.55
23363;BME280;11853;48.080;11.960;2023-04-08T11:01:53;95043.25;;;7.40;97.39
23363;BME280;11853;48.080;11.960;2023-04-08T11:04:19;95038.38;;;7.36;97.48
23363;BME280;11853;48.080;11.960;2023-04-08T11:06:48;95039.19;;;7.36;97.15
23363;BME280;11853;48.080;11.960;2023-04-08T11:09:14;95046.78;;;7.30;98.65
23363;BME280;11853;48.080;11.960;2023-04-08T11:11:42;95054.31;;;7.34;99.08
23363;BME280;11853;48.080;11.960;2023-04-08T11:14:08;95054.47;;;7.33;98.97
23363;BME280;11853;48.080;11.960;2023-04-08T11:16:34;95059.22;;;7.39;98.63
23363;BME280;11853;48.080;11.960;2023-04-08T11:19:02;95056.84;;;7.36;99.55
23363;BME280;11853;48.080;11.960;2023-04-08T11:21:30;95050.94;;;7.32;100.00
23363;BME280;11853;48.080;11.960;2023-04-08T11:23:56;95053.34;;;7.35;100.00
23363;BME280;11853;48.080;11.960;2023-04-08T11:26:22;95058.38;;;7.38;100.00
23363;BME280;11853;48.080;11.960;2023-04-08T11:28:49;95055.13;;;7.35;100.00
23363;BME280;11853;48.080;11.960;2023-04-08T11:31:16;95055.03;;;7.36;100.00
23363;BME280;11853;48.080;11.960;2023-04-08T11:33:46;95059.34;;;7.37;100.00
23363;BME280;11853;48.080;11.960;2023-04-08T11:36:13;95059.34;;;7.37;100.00
23363;BME280;11853;48.080;11.960;2023-04-08T11:38:39;95053.78;;;7.40;100.00
23363;BME280;11853;48.080;11.960;2023-04-08T11:41:08;95059.06;;;7.40;100.00
23363;BME280;11853;48.080;11.960;2023-04-08T11:43:35;95054.88;;;7.38;100.00
23363;BME280;11853;48.080;11.960;2023-04-08T11:46:10;95057.09;;;7.33;100.00
23363;BME280;11853;48.080;11.960;2023-04-08T11:48:37;95061.75;;;7.29;100.00
23363;BME280;11853;48.080;11.960;2023-04-08T11:51:04;95059.00;;;7.31;100.00
23363;BME280;11853;48.080;11.960;2023-04-08T11:53:33;95057.34;;;7.30;100.00
23363;BME280;11853;48.080;11.960;2023-04-08T11:56:16;95059.84;;;7.31;100.00
23363;BME280;11853;48.080;11.960;2023-04-08T11:58:42;95063.19;;;7.33;100.00
23363;BME280;11853;48.080;11.960;2023-04-08T12:01:08;95064.28;;;7.31;100.00
23363;BME280;11853;48.080;11.960;2023-04-08T12:03:34;95059.28;;;7.28;100.00
23363;BME280;11853;48.080;11.960;2023-04-08T12:06:00;95059.13;;;7.29;100.00
23363;BME280;11853;48.080;11.960;2023-04-08T12:08:25;95074.84;;;7.31;100.00
23363;BME280;11853;48.080;11.960;2023-04-08T12:10:51;95070.09;;;7.25;100.00
23363;BME280;11853;48.080;11.960;2023-04-08T12:13:17;95068.53;;;7.22;100.00
23363;BME280;11853;48.080;11.960;2023-04-08T12:15:43;95070.63;;;7.07;100.00
23363;BME280;11853;48.080;11.960;2023-04-08T12:18:09;95067.59;;;7.12;100.00
23363;BME280;11853;48.080;11.960;2023-04-08T12:20:35;95066.06;;;7.09;100.00
23363;BME280;11853;48.080;11.960;2023-04-08T12:23:00;95068.91;;;7.17;100.00
23363;BME280;11853;48.080;11.960;2023-04-08T12:25:26;95068.66;;;7.20;100.00
23363;BME280;11853;48.080;11.960;2023-04-08T12:27:52;95068.31;;;7.14;100.00
23363;BME280;11853;48.080;11.960;2023-04-08T12:30:17;95062.06;;;7.15;100.00
23363;BME280;11853;48.080;11.960;2023-04-08T12:32:43;95074.75;;;7.21;100.00
23363;BME280;11853;48.080;11.960;2023-04-08T12:35:10;95075.63;;;7.21;100.00
23363;BME280;11853;48.080;11.960;2023-04-08T12:37:35;95072.97;;;7.21;100.00
23363;BME280;11853;48.080;11.960;2023-04-08T12:40:01;95081.41;;;7.15;100.00
23363;BME280;11853;48.080;11.960;2023-04-08T12:42:26;95082.91;;;7.18;100.00
23363;BME280;11853;48.080;11.960;2023-04-08T12:44:52;95088.19;;;7.18;100.00
23363;BME280;11853;48.080;11.960;2023-04-08T12:47:18;95080.22;;;7.08;100.00
23363;BME280;11853;48.080;11.960;2023-04-08T12:49:43;95086.31;;;7.09;100.00
23363;BME280;11853;48.080;11.960;2023-04-08T12:52:09;95076.03;;;7.06;100.00
23363;BME280;11853;48.080;11.960;2023-04-08T12:54:34;95081.88;;;7.09;100.00
23363;BME280;11853;48.080;11.960;2023-04-08T12:57:00;95082.97;;;7.07;100.00
23363;BME280;11853;48.080;11.960;2023-04-08T12:59:27;95084.34;;;7.01;100.00
23363;BME280;11853;48.080;11.960;2023-04-08T13:01:52;95090.44;;;7.02;100.00
23363;BME280;11853;48.080;11.960;2023-04-08T13:04:18;95087.28;;;7.08;100.00